createdAt,value
2019-01-27T00:00:53.443Z,3.15
2019-01-27T00:06:15.552Z,3.19
2019-01-27T00:08:44.207Z,3.25
2019-01-27T00:11:12.900Z,3.20
2019-01-27T00:13:41.592Z,3.20
2019-01-27T00:19:18.591Z,3.21
2019-01-27T00:21:47.240Z,3.30
2019-01-27T00:27:09.486Z,3.24
2019-01-27T00:29:38.148Z,3.28
2019-01-27T00:32:06.853Z,3.24
2019-01-27T00:34:54.803Z,3.20
2019-01-27T00:37:23.463Z,3.13
2019-01-27T00:45:40.425Z,3.04
2019-01-27T00:48:48.914Z,3.15
2019-01-27T00:51:57.341Z,3.13
2019-01-27T00:54:45.289Z,3.21
2019-01-27T00:57:33.239Z,3.21
2019-01-27T01:00:21.185Z,3.16
2019-01-27T01:06:17.195Z,3.14
2019-01-27T01:08:45.839Z,3.07
2019-01-27T01:11:54.319Z,3.02
2019-01-27T01:14:22.977Z,2.98
2019-01-27T01:17:10.819Z,3.08
2019-01-27T01:23:27.428Z,3.07
2019-01-27T01:25:56.127Z,2.95
2019-01-27T01:28:43.910Z,2.92
2019-01-27T01:31:31.854Z,2.84
2019-01-27T01:34:00.549Z,2.76
2019-01-27T01:36:48.359Z,2.74
2019-01-27T01:39:36.296Z,2.69
2019-01-27T01:44:59.918Z,2.51
2019-01-27T01:47:47.704Z,2.54
2019-01-27T01:53:30.321Z,2.50
2019-01-27T01:56:18.160Z,2.57
2019-01-27T01:59:06.106Z,2.73
2019-01-27T02:01:54.012Z,2.76
2019-01-27T02:04:41.965Z,2.76
2019-01-27T02:10:58.560Z,2.83
2019-01-27T02:13:46.487Z,2.85
2019-01-27T02:16:15.262Z,2.74
2019-01-27T02:19:03.092Z,2.79
2019-01-27T02:22:11.534Z,2.69
2019-01-27T02:24:59.347Z,2.68
2019-01-27T02:27:28.012Z,2.68
2019-01-27T02:30:15.971Z,2.74
2019-01-27T02:38:12.556Z,2.70
2019-01-27T02:41:00.467Z,2.70
2019-01-27T02:43:29.166Z,2.76
2019-01-27T02:48:45.627Z,2.81
2019-01-27T02:51:34.072Z,2.78
2019-01-27T02:54:03.598Z,2.70
2019-01-27T02:56:51.571Z,2.72
2019-01-27T02:59:20.218Z,2.71
2019-01-27T03:09:55.839Z,2.61
2019-01-27T03:12:43.807Z,2.78
2019-01-27T03:15:52.286Z,2.82
2019-01-27T03:18:20.944Z,2.73
2019-01-27T03:21:08.891Z,2.78
2019-01-27T03:27:04.852Z,2.80
2019-01-27T03:29:52.733Z,2.74
2019-01-27T03:32:40.645Z,2.74
2019-01-27T03:35:49.108Z,2.82
2019-01-27T03:38:17.763Z,2.71
2019-01-27T03:40:46.451Z,2.64
2019-01-27T03:43:15.114Z,2.60
2019-01-27T03:45:43.762Z,2.56
2019-01-27T03:55:55.055Z,2.64
2019-01-27T03:58:42.930Z,2.68
2019-01-27T04:04:18.528Z,2.74
2019-01-27T04:07:06.357Z,2.84
2019-01-27T04:09:35.053Z,2.88
2019-01-27T04:14:51.393Z,2.92
2019-01-27T04:17:39.298Z,2.98
2019-01-27T04:20:47.760Z,3.10
2019-01-27T04:23:35.694Z,3.17
2019-01-27T04:26:23.634Z,3.18
2019-01-27T04:29:11.515Z,3.27
2019-01-27T04:31:40.206Z,3.33
2019-01-27T04:34:08.858Z,3.33
2019-01-27T04:36:56.801Z,3.34
2019-01-27T04:39:44.634Z,3.27
2019-01-27T04:42:32.439Z,3.28
2019-01-27T04:45:20.225Z,3.27
2019-01-27T04:50:23.036Z,3.24
2019-01-27T04:52:51.696Z,3.30
2019-01-27T04:56:00.166Z,3.26
2019-01-27T04:58:28.868Z,3.23
2019-01-27T05:01:16.655Z,3.17
2019-01-27T05:04:04.558Z,3.18
2019-01-27T05:06:33.290Z,3.27
2019-01-27T05:09:21.244Z,3.21
2019-01-27T05:11:49.918Z,3.09
2019-01-27T05:14:37.762Z,3.17
2019-01-27T05:17:25.654Z,3.18
2019-01-27T05:19:54.343Z,3.09
2019-01-27T05:22:42.249Z,3.01
2019-01-27T05:25:50.722Z,3.11
2019-01-27T05:28:59.181Z,3.04
2019-01-27T05:31:46.997Z,3.08
2019-01-27T05:34:35.071Z,3.15
2019-01-27T05:37:04.071Z,3.17
2019-01-27T05:39:52.484Z,3.27
2019-01-27T05:42:42.162Z,3.27
2019-01-27T05:45:50.836Z,3.26
2019-01-27T05:48:19.986Z,3.23
2019-01-27T05:51:07.862Z,3.40
2019-01-27T05:53:36.534Z,3.41
2019-01-27T05:56:24.512Z,3.39
2019-01-27T05:58:53.193Z,3.44
2019-01-27T06:01:41.145Z,3.53
2019-01-27T06:09:18.505Z,3.48
2019-01-27T06:12:06.341Z,3.46
2019-01-27T06:14:35.033Z,3.46
2019-01-27T06:17:03.696Z,3.34
2019-01-27T06:19:51.579Z,3.41
2019-01-27T06:22:39.498Z,3.40
2019-01-27T06:25:48.033Z,3.29
2019-01-27T06:28:30.083Z,3.20
2019-01-27T06:30:58.778Z,3.14
2019-01-27T06:33:46.740Z,3.13
2019-01-27T06:36:15.448Z,3.12
2019-01-27T06:41:52.537Z,3.15
2019-01-27T06:44:40.450Z,3.20
2019-01-27T06:47:09.135Z,3.18
2019-01-27T06:49:37.830Z,3.16
2019-01-27T06:52:25.811Z,3.18
2019-01-27T06:54:54.467Z,3.19
2019-01-27T06:57:23.152Z,3.25
2019-01-27T07:07:57.391Z,3.27
2019-01-27T07:10:45.210Z,3.25
2019-01-27T07:13:33.061Z,3.31
2019-01-27T07:16:20.837Z,3.27
2019-01-27T07:19:08.707Z,3.29
2019-01-27T07:21:56.481Z,3.28
2019-01-27T07:24:44.286Z,3.34
2019-01-27T07:38:57.780Z,3.60
2019-01-27T07:41:45.567Z,3.72
2019-01-27T07:44:52.576Z,3.68
2019-01-27T07:47:59.586Z,3.66
2019-01-27T07:51:06.590Z,3.67
2019-01-27T07:54:13.696Z,3.80
2019-01-27T07:57:20.708Z,3.72
2019-01-27T08:00:29.209Z,3.74
2019-01-27T08:03:17.038Z,3.84
2019-01-27T08:11:33.689Z,3.94
2019-01-27T08:14:21.489Z,4.02
2019-01-27T08:20:04.099Z,4.15
2019-01-27T08:22:51.924Z,4.22
2019-01-27T08:25:58.951Z,4.24
2019-01-27T08:31:55.161Z,4.29
2019-01-27T08:37:51.536Z,4.45
2019-01-27T08:43:55.871Z,4.60
2019-01-27T08:46:43.722Z,4.60
2019-01-27T08:49:12.517Z,4.62
2019-01-27T08:52:00.365Z,4.65
2019-01-27T08:54:29.055Z,4.73
2019-01-27T08:57:17.301Z,4.67
2019-01-27T09:00:05.252Z,4.87
2019-01-27T09:03:12.251Z,5.00
2019-01-27T09:06:00.047Z,5.07
2019-01-27T09:15:17.769Z,5.13
2019-01-27T09:18:05.538Z,5.19
2019-01-27T09:23:48.174Z,5.27
2019-01-27T09:26:55.134Z,5.33
2019-01-27T09:30:02.136Z,5.28
2019-01-27T09:32:49.942Z,5.30
2019-01-27T09:35:56.883Z,5.45
2019-01-27T09:39:03.885Z,5.78
2019-01-27T09:45:19.231Z,6.14
2019-01-27T09:51:34.611Z,6.00
2019-01-27T09:57:36.052Z,5.77
2019-01-27T10:00:44.467Z,5.75
2019-01-27T10:06:27.004Z,5.62
2019-01-27T10:09:33.973Z,5.52
2019-01-27T10:18:18.844Z,5.81
2019-01-27T10:27:10.292Z,5.85
2019-01-27T10:33:06.492Z,5.91
2019-01-27T10:36:13.515Z,5.84
2019-01-27T10:39:01.293Z,5.89
2019-01-27T10:41:49.098Z,6.15
2019-01-27T10:44:56.109Z,6.17
2019-01-27T10:48:03.077Z,6.16
2019-01-27T10:51:10.079Z,6.25
2019-01-27T10:57:06.292Z,6.89
2019-01-27T11:05:57.706Z,7.20
2019-01-27T11:18:03.041Z,8.62
2019-01-27T11:20:50.808Z,8.40
2019-01-27T11:23:38.620Z,8.31
2019-01-27T11:26:26.451Z,8.49
2019-01-27T11:29:33.388Z,8.41
2019-01-27T11:32:40.382Z,8.40
2019-01-27T11:35:48.827Z,8.70
2019-01-27T11:38:36.634Z,8.90
2019-01-27T11:41:24.430Z,8.98
2019-01-27T11:50:24.516Z,7.88
2019-01-27T11:53:12.458Z,7.38
2019-01-27T11:55:41.108Z,7.44
2019-01-27T11:58:28.984Z,7.34
2019-01-27T12:01:16.803Z,7.22
2019-01-27T12:04:04.768Z,7.13
2019-01-27T12:06:52.625Z,6.99
2019-01-27T12:09:40.389Z,7.03
2019-01-27T12:12:28.208Z,6.98
2019-01-27T12:15:16.130Z,7.08
2019-01-27T12:20:53.214Z,7.17
2019-01-27T12:23:41.137Z,7.04
2019-01-27T12:28:44.417Z,7.16
2019-01-27T12:31:32.291Z,7.10
2019-01-27T12:34:20.138Z,7.06
2019-01-27T12:37:08.014Z,7.06
2019-01-27T12:39:55.845Z,6.83
2019-01-27T12:42:43.756Z,6.69
2019-01-27T12:45:52.172Z,6.63
2019-01-27T12:48:40.047Z,6.66
2019-01-27T12:51:27.873Z,6.65
2019-01-27T12:54:15.756Z,6.63
2019-01-27T12:57:03.706Z,6.65
2019-01-27T12:59:51.568Z,6.64
2019-01-27T13:02:39.396Z,6.65
2019-01-27T13:08:03.182Z,6.91
2019-01-27T13:13:40.006Z,7.05
2019-01-27T13:16:08.649Z,7.03
2019-01-27T13:18:56.466Z,6.93
2019-01-27T13:21:44.280Z,6.88
2019-01-27T13:24:32.089Z,6.80
2019-01-27T13:27:19.922Z,6.69
2019-01-27T13:30:07.797Z,6.66
2019-01-27T13:38:57.212Z,6.53
2019-01-27T13:41:45.026Z,6.48
2019-01-27T13:44:32.962Z,6.54
2019-01-27T13:47:20.828Z,6.66
2019-01-27T13:50:10.114Z,6.72
2019-01-27T13:52:38.977Z,6.73
2019-01-27T13:55:28.305Z,6.82
2019-01-27T14:00:44.608Z,6.95
2019-01-27T14:03:32.374Z,7.12
2019-01-27T14:06:20.250Z,7.11
2019-01-27T14:09:08.070Z,7.10
2019-01-27T14:14:30.108Z,7.05
2019-01-27T14:17:17.912Z,7.10
2019-01-27T14:20:05.744Z,7.12
2019-01-27T14:22:34.446Z,7.28
2019-01-27T14:25:22.278Z,7.37
2019-01-27T14:28:10.149Z,7.40
2019-01-27T14:30:59.482Z,7.90
2019-01-27T14:33:47.362Z,8.20
2019-01-27T14:36:35.183Z,8.13
2019-01-27T14:39:23.041Z,8.18
2019-01-27T14:42:10.814Z,8.10
2019-01-27T14:44:58.678Z,7.82
2019-01-27T14:47:46.557Z,7.78
2019-01-27T14:50:54.996Z,7.65
2019-01-27T14:53:42.874Z,7.52
2019-01-27T14:56:30.929Z,7.48
2019-01-27T14:59:18.804Z,7.42
2019-01-27T15:02:06.641Z,7.46
2019-01-27T15:04:54.517Z,7.37
2019-01-27T15:07:42.397Z,7.22
2019-01-27T15:10:30.312Z,7.16
2019-01-27T15:13:18.107Z,7.10
2019-01-27T15:15:46.742Z,7.05
2019-01-27T15:18:34.706Z,7.05
2019-01-27T15:21:22.507Z,6.97
2019-01-27T15:24:10.280Z,6.90
2019-01-27T15:26:58.157Z,6.89
2019-01-27T15:29:45.981Z,6.88
2019-01-27T15:32:33.918Z,6.90
2019-01-27T15:35:21.747Z,6.90
2019-01-27T15:37:50.439Z,6.88
2019-01-27T15:40:58.851Z,6.87
2019-01-27T15:43:48.622Z,6.80
2019-01-27T15:46:36.262Z,6.82
2019-01-27T15:49:24.136Z,6.75
2019-01-27T15:52:12.087Z,6.73
2019-01-27T15:54:59.943Z,6.65
2019-01-27T15:57:47.889Z,6.65
2019-01-27T16:00:56.346Z,6.67
2019-01-27T16:03:44.176Z,6.70
2019-01-27T16:06:32.071Z,6.58
2019-01-27T16:09:19.949Z,6.54
2019-01-27T16:11:48.595Z,6.51
2019-01-27T16:14:36.473Z,6.43
2019-01-27T16:17:44.939Z,6.37
2019-01-27T16:20:53.369Z,6.33
2019-01-27T16:23:41.183Z,6.34
2019-01-27T16:26:28.997Z,6.23
2019-01-27T16:34:41.614Z,6.19
2019-01-27T16:37:10.266Z,6.31
2019-01-27T16:39:38.909Z,6.21
2019-01-27T16:42:26.851Z,6.19
2019-01-27T16:44:55.499Z,6.26
2019-01-27T16:47:43.368Z,6.12
2019-01-27T16:50:51.856Z,6.16
2019-01-27T16:53:39.828Z,6.27
2019-01-27T16:56:27.590Z,6.21
2019-01-27T16:59:15.474Z,6.19
2019-01-27T17:02:03.280Z,6.18
2019-01-27T17:04:31.950Z,6.19
2019-01-27T17:07:00.596Z,6.16
2019-01-27T17:09:48.470Z,6.09
2019-01-27T17:12:36.670Z,6.11
2019-01-27T17:15:45.131Z,6.01
2019-01-27T17:18:33.076Z,5.93
2019-01-27T17:21:20.896Z,5.87
2019-01-27T17:24:16.061Z,5.77
2019-01-27T17:26:44.687Z,5.85
2019-01-27T17:29:13.378Z,5.72
2019-01-27T17:32:01.212Z,5.73
2019-01-27T17:34:49.071Z,5.74
2019-01-27T17:37:36.955Z,5.74
2019-01-27T17:40:45.431Z,5.69
2019-01-27T17:43:14.448Z,5.66
2019-01-27T17:45:43.075Z,5.57
2019-01-27T17:48:30.890Z,5.61
2019-01-27T17:51:18.726Z,5.61
2019-01-27T18:02:32.172Z,5.57
2019-01-27T18:05:39.093Z,5.53
2019-01-27T18:16:13.365Z,5.27
2019-01-27T18:18:42.010Z,5.17
2019-01-27T18:21:10.697Z,5.19
2019-01-27T18:23:58.467Z,5.04
2019-01-27T18:26:27.155Z,4.98
2019-01-27T18:29:15.027Z,4.87
2019-01-27T18:31:43.655Z,4.71
2019-01-27T18:34:12.330Z,4.68
2019-01-27T18:36:41.207Z,4.58
2019-01-27T18:39:30.545Z,4.58
2019-01-27T18:41:59.188Z,4.55
2019-01-27T18:44:27.917Z,4.46
2019-01-27T18:47:15.726Z,4.52
2019-01-27T18:52:38.856Z,4.40
2019-01-27T18:55:47.277Z,4.36
2019-01-27T18:58:35.088Z,4.38
2019-01-27T19:01:24.339Z,4.36
2019-01-27T19:09:45.844Z,4.31
2019-01-27T19:12:33.617Z,4.23
2019-01-27T19:15:40.627Z,4.23
2019-01-27T19:18:28.446Z,4.30
2019-01-27T19:27:20.547Z,4.26
2019-01-27T19:32:49.089Z,4.29
2019-01-27T19:38:45.298Z,4.34
2019-01-27T19:44:41.537Z,4.32
2019-01-27T19:47:48.484Z,4.29
2019-01-27T19:50:55.471Z,4.29
2019-01-27T19:53:43.299Z,4.29
2019-01-27T19:56:50.291Z,4.28
2019-01-27T19:59:57.283Z,4.30
2019-01-27T20:02:45.092Z,4.26
2019-01-27T20:16:51.209Z,4.16
2019-01-27T20:19:39.013Z,4.10
2019-01-27T20:22:26.827Z,4.17
2019-01-27T20:28:23.022Z,4.21
2019-01-27T20:31:30.024Z,4.20
2019-01-27T20:34:36.984Z,4.17
2019-01-27T20:37:24.786Z,4.19
2019-01-27T20:40:31.748Z,4.16
2019-01-27T20:43:38.785Z,4.14
2019-01-27T20:46:26.562Z,4.13
2019-01-27T20:49:33.578Z,4.09
2019-01-27T20:54:56.809Z,4.01
2019-01-27T20:57:44.588Z,3.96
2019-01-27T21:00:53.047Z,3.94
2019-01-27T21:03:40.852Z,3.89
2019-01-27T21:06:47.823Z,3.80
2019-01-27T21:09:35.635Z,3.78
2019-01-27T21:22:30.250Z,3.36
2019-01-27T21:24:59.074Z,3.17
2019-01-27T21:27:46.944Z,3.14
2019-01-27T21:30:55.373Z,3.12
2019-01-27T21:33:43.248Z,3.08
2019-01-27T21:36:31.086Z,2.99
2019-01-27T21:38:59.773Z,2.88
2019-01-27T21:41:47.701Z,2.79
2019-01-27T21:44:35.649Z,2.70
2019-01-27T21:47:44.118Z,2.70
2019-01-27T21:50:52.776Z,2.70
2019-01-27T21:53:21.425Z,2.62
2019-01-27T21:56:09.288Z,2.52
2019-01-27T21:58:57.156Z,2.43
2019-01-27T22:01:44.977Z,2.40
2019-01-27T22:04:32.781Z,2.27
2019-01-27T22:07:01.410Z,2.17
2019-01-27T22:09:49.232Z,2.05
2019-01-27T22:12:17.919Z,1.86
2019-01-27T22:15:05.765Z,1.79
2019-01-27T22:20:27.969Z,1.50
2019-01-27T22:22:56.636Z,1.38
2019-01-27T22:25:44.495Z,1.41
2019-01-27T22:28:32.375Z,1.37
2019-01-27T22:31:20.188Z,1.35
2019-01-27T22:34:08.138Z,1.32
2019-01-27T22:36:55.914Z,1.27
2019-01-27T22:39:44.680Z,1.02
2019-01-27T22:42:14.117Z,0.99
2019-01-27T22:45:01.931Z,1.00
2019-01-27T22:47:30.623Z,1.03
2019-01-27T22:49:59.277Z,0.89
2019-01-27T22:52:47.155Z,0.85
2019-01-27T22:55:16.094Z,0.91
2019-01-27T22:57:44.747Z,0.86
2019-01-27T23:00:53.230Z,0.80
2019-01-27T23:03:41.100Z,0.81
2019-01-27T23:06:28.939Z,0.76
2019-01-27T23:11:52.535Z,0.77
2019-01-27T23:14:21.223Z,0.79
2019-01-27T23:17:09.193Z,0.80
2019-01-27T23:19:37.865Z,0.71
2019-01-27T23:22:06.502Z,0.71
2019-01-27T23:24:54.391Z,0.79
2019-01-27T23:27:23.142Z,0.76
2019-01-27T23:29:51.784Z,0.74
2019-01-27T23:32:20.455Z,0.80
2019-01-27T23:34:49.135Z,0.88
2019-01-27T23:37:36.900Z,0.90
2019-01-27T23:40:45.382Z,0.82
2019-01-27T23:43:14.030Z,0.86
2019-01-27T23:45:42.725Z,0.81
2019-01-27T23:48:30.709Z,0.81
2019-01-27T23:51:18.728Z,0.81
2019-01-27T23:53:47.440Z,0.79
2019-01-27T23:56:16.081Z,0.82
2019-01-27T23:58:44.734Z,0.79
